Time;durP1;ratioP1;P1;durP2;ratioP2;P2;SDS_P1;SDS_P2;PMS_P1;PMS_P2;Temp;Humidity;BMP_temperature;BMP_pressure;BME280_temperature;BME280_humidity;BME280_pressure;Samples;Min_cycle;Max_cycle;Signal;HPM_P1;HPM_P2
2023/03/11 00:00:32;;;;;;;2.03;0.20;;;;;;;-1.74;50.55;100153.94;5026526;28;20099;-75
2023/03/11 00:03:00;;;;;;;2.17;0.25;;;;;;;-1.67;50.21;100158.19;5021762;28;20427;-74
2023/03/11 00:05:32;;;;;;;0.70;0.10;;;;;;;-1.91;50.63;100152.25;5020540;28;20599;-75
2023/03/11 00:07:58;;;;;;;7.50;0.73;;;;;;;-1.80;50.37;100160.78;5011015;28;20056;-73
2023/03/11 00:10:30;;;;;;;5.00;0.47;;;;;;;-2.21;51.06;100174.38;5026394;28;20387;-73
2023/03/11 00:12:57;;;;;;;5.68;0.10;;;;;;;-2.26;51.23;100176.09;5027053;28;20127;-75
2023/03/11 00:15:23;;;;;;;5.20;0.25;;;;;;;-2.07;51.50;100183.81;5025532;28;20033;-76
2023/03/11 00:17:49;;;;;;;1.70;0.63;;;;;;;-1.83;51.10;100173.56;5012270;28;20050;-76
2023/03/11 00:20:23;;;;;;;6.85;0.50;;;;;;;-1.90;51.03;100188.94;4981891;28;20029;-74
2023/03/11 00:22:49;;;;;;;2.10;0.13;;;;;;;-1.78;50.86;100203.47;5000029;28;20053;-69
2023/03/11 00:25:16;;;;;;;3.05;0.60;;;;;;;-2.06;50.97;100213.69;5000477;28;20041;-69
2023/03/11 00:27:42;;;;;;;2.50;0.70;;;;;;;-1.80;50.40;100219.69;5007298;28;20454;-68
2023/03/11 00:30:09;;;;;;;4.22;0.30;;;;;;;-1.73;49.88;100209.44;5006183;28;20037;-66
2023/03/11 00:32:34;;;;;;;7.57;0.28;;;;;;;-1.91;49.70;100212.84;5006863;28;20055;-67
2023/03/11 00:35:00;;;;;;;2.45;0.28;;;;;;;-1.69;49.66;100227.38;5010606;28;20042;-69
2023/03/11 00:37:25;;;;;;;5.80;0.43;;;;;;;-1.88;50.13;100236.75;5020986;28;20041;-68
2023/03/11 00:39:51;;;;;;;3.50;0.52;;;;;;;-1.96;50.43;100250.41;5001720;28;20124;-72
2023/03/11 00:42:17;;;;;;;2.97;0.20;;;;;;;-1.93;49.85;100242.72;5018290;28;20095;-73
2023/03/11 00:44:42;;;;;;;3.28;0.28;;;;;;;-1.97;49.86;100239.31;5018452;28;20044;-72
2023/03/11 00:47:10;;;;;;;0.68;0.35;;;;;;;-2.11;49.83;100252.09;5031618;28;20049;-71
2023/03/11 00:49:35;;;;;;;7.05;0.20;;;;;;;-1.86;49.42;100260.69;5006997;28;20052;-74
2023/03/11 00:52:01;;;;;;;4.03;0.35;;;;;;;-2.03;50.43;100259.78;5018446;28;20057;-75
2023/03/11 00:54:27;;;;;;;4.32;0.20;;;;;;;-1.93;50.47;100261.53;5008061;28;20922;-75
2023/03/11 00:56:52;;;;;;;3.47;0.65;;;;;;;-2.06;51.26;100268.31;5001015;28;20044;-75
2023/03/11 00:59:18;;;;;;;8.70;0.63;;;;;;;-1.92;50.82;100270.91;5028046;28;20056;-74
2023/03/11 01:01:43;;;;;;;5.50;0.40;;;;;;;-1.67;50.33;100265.81;5009425;28;20038;-75
2023/03/11 01:04:09;;;;;;;4.50;0.30;;;;;;;-2.06;50.89;100275.16;5005587;28;20460;-73
2023/03/11 01:06:34;;;;;;;2.28;0.38;;;;;;;-1.64;50.05;100278.66;5019956;28;20037;-73
2023/03/11 01:09:00;;;;;;;0.90;0.10;;;;;;;-1.54;49.42;100274.38;5021537;28;20068;-74
2023/03/11 01:11:25;;;;;;;3.47;0.15;;;;;;;-1.51;48.90;100282.94;5022795;28;20036;-74
2023/03/11 01:13:51;;;;;;;0.70;0.13;;;;;;;-1.67;48.56;100283.75;5024334;28;20060;-71
2023/03/11 01:16:16;;;;;;;4.22;0.20;;;;;;;-1.53;48.07;100287.19;5025738;28;20032;-69
2023/03/11 01:18:42;;;;;;;2.92;0.10;;;;;;;-2.02;48.40;100302.50;5009040;28;20558;-69
2023/03/11 01:21:07;;;;;;;1.73;0.10;;;;;;;-1.67;47.96;100301.69;5002532;28;20033;-66
2023/03/11 01:23:32;;;;;;;1.90;0.10;;;;;;;-1.75;48.36;100305.97;5030479;28;20052;-67
2023/03/11 01:25:58;;;;;;;2.85;0.20;;;;;;;-1.68;48.55;100303.41;5025626;28;20041;-69
2023/03/11 01:28:25;;;;;;;7.18;0.40;;;;;;;-1.74;48.75;100312.78;5022206;28;20029;-70
2023/03/11 01:30:50;;;;;;;0.30;0.10;;;;;;;-1.87;49.30;100312.75;5023718;28;20286;-70
2023/03/11 01:33:18;;;;;;;2.55;0.15;;;;;;;-1.68;48.72;100311.09;5027668;28;20392;-69
2023/03/11 01:35:44;;;;;;;3.13;0.10;;;;;;;-1.56;48.59;100319.63;5028473;28;20048;-67
2023/03/11 01:38:11;;;;;;;2.97;0.47;;;;;;;-1.69;49.01;100319.59;5011763;28;20960;-70
2023/03/11 01:40:46;;;;;;;1.98;0.20;;;;;;;-1.46;48.83;100337.59;5023945;28;20026;-69
2023/03/11 01:43:40;;;;;;;0.98;0.10;;;;;;;-1.84;49.14;100328.13;5025061;28;20052;-70
2023/03/11 01:46:14;;;;;;;2.38;0.45;;;;;;;-1.42;48.88;100347.00;5015153;28;20034;-69
2023/03/11 01:48:53;;;;;;;2.13;0.30;;;;;;;-1.25;48.57;100338.47;5029410;28;20060;-69
2023/03/11 01:51:34;;;;;;;2.45;0.10;;;;;;;-1.52;49.05;100345.28;5028634;28;20116;-69
2023/03/11 01:54:04;;;;;;;1.05;0.13;;;;;;;-1.42;48.91;100346.13;5023659;28;20041;-69
2023/03/11 01:56:31;;;;;;;3.15;0.10;;;;;;;-1.58;48.89;100352.94;5024326;28;20575;-74
2023/03/11 01:58:57;;;;;;;0.98;0.13;;;;;;;-1.62;49.02;100354.66;5011279;28;20160;-74
2023/03/11 02:01:24;;;;;;;3.65;0.20;;;;;;;-1.63;49.20;100358.06;5023059;28;20036;-72
2023/03/11 02:03:49;;;;;;;6.63;0.20;;;;;;;-1.36;48.23;100360.69;5011194;28;20046;-67
2023/03/11 02:06:19;;;;;;;6.43;0.10;;;;;;;-1.59;49.25;100372.59;5024097;28;20044;-67
2023/03/11 02:08:45;;;;;;;1.08;0.10;;;;;;;-1.62;49.57;100374.28;5029448;28;20037;-65
2023/03/11 02:11:21;;;;;;;0.55;0.10;;;;;;;-1.72;50.56;100367.44;5022571;28;20033;-66
2023/03/11 02:13:48;;;;;;;3.30;0.20;;;;;;;-1.85;50.65;100371.69;5026809;28;20038;-67
2023/03/11 02:16:14;;;;;;;2.13;0.20;;;;;;;-1.65;50.02;100375.16;5012142;28;20507;-67
2023/03/11 02:18:41;;;;;;;1.50;0.68;;;;;;;-1.59;49.62;100379.44;5005934;28;20045;-69
2023/03/11 02:21:12;;;;;;;4.72;0.10;;;;;;;-1.28;49.21;100379.50;5029839;28;20079;-67
2023/03/11 02:23:51;;;;;;;1.90;0.30;;;;;;;-1.62;49.39;100385.41;5007179;28;20050;-68
2023/03/11 02:26:26;;;;;;;4.88;0.10;;;;;;;-1.48;49.07;100375.19;4998144;28;20715;-69
2023/03/11 02:28:54;;;;;;;4.65;0.40;;;;;;;-1.78;49.44;100387.91;5020580;28;20048;-70
2023/03/11 02:31:21;;;;;;;0.40;0.00;;;;;;;-1.78;49.08;100386.22;5011453;28;20613;-67
2023/03/11 02:33:51;;;;;;;2.05;0.10;;;;;;;-1.81;48.90;100374.25;5027890;28;20663;-70
2023/03/11 02:36:39;;;;;;;0.70;0.10;;;;;;;-1.61;47.55;100387.13;5027020;28;20486;-69
2023/03/11 02:39:09;;;;;;;1.05;0.10;;;;;;;-1.60;47.47;100395.66;5020387;28;20545;-69
2023/03/11 02:41:39;;;;;;;3.92;0.43;;;;;;;-1.75;47.64;100398.19;5025330;28;20403;-70
2023/03/11 02:44:09;;;;;;;1.40;0.45;;;;;;;-1.97;48.28;100395.56;5023224;28;20073;-70
2023/03/11 02:46:37;;;;;;;1.50;0.00;;;;;;;-1.92;47.99;100391.28;5020658;28;20124;-69
2023/03/11 02:49:04;;;;;;;1.73;0.03;;;;;;;-1.91;47.97;100398.16;5022514;28;20044;-69
2023/03/11 02:51:29;;;;;;;1.90;0.13;;;;;;;-1.77;47.65;100405.88;5023183;28;20678;-70
2023/03/11 02:53:59;;;;;;;1.88;0.20;;;;;;;-2.15;48.41;100400.59;5028417;28;20048;-71
2023/03/11 02:56:27;;;;;;;2.80;0.20;;;;;;;-1.91;47.70;100404.94;5021821;28;20029;-70
2023/03/11 02:58:53;;;;;;;3.33;1.08;;;;;;;-1.81;47.10;100405.00;5021822;28;20079;-69
2023/03/11 03:01:19;;;;;;;1.42;0.10;;;;;;;-1.93;47.44;100409.22;5012297;28;20396;-70
2023/03/11 03:03:47;;;;;;;1.20;0.10;;;;;;;-1.98;47.24;100406.63;5023039;28;20049;-70
2023/03/11 03:06:12;;;;;;;2.55;0.20;;;;;;;-1.84;47.22;100424.63;5029084;28;20069;-69
2023/03/11 03:08:38;;;;;;;3.50;0.22;;;;;;;-1.79;47.33;100417.81;5003342;28;20053;-70
2023/03/11 03:11:03;;;;;;;4.13;0.38;;;;;;;-1.88;47.91;100423.75;5028742;28;20706;-70
2023/03/11 03:13:31;;;;;;;4.63;0.45;;;;;;;-2.05;48.64;100440.75;5018817;28;20152;-70
2023/03/11 03:15:57;;;;;;;3.40;0.40;;;;;;;-1.83;48.08;100437.44;5005511;28;20432;-69
2023/03/11 03:18:23;;;;;;;2.55;0.20;;;;;;;-1.77;48.17;100443.47;5015483;28;20046;-69
2023/03/11 03:20:49;;;;;;;2.45;0.22;;;;;;;-1.89;48.60;100444.22;5024440;28;20037;-68
2023/03/11 03:23:17;;;;;;;1.75;0.10;;;;;;;-1.84;48.85;100451.09;5020074;28;20575;-70
2023/03/11 03:25:44;;;;;;;3.03;0.20;;;;;;;-1.88;48.71;100445.97;5009641;28;20030;-68
2023/03/11 03:28:11;;;;;;;7.70;0.43;;;;;;;-1.60;47.87;100444.34;5025001;28;20038;-70
2023/03/11 03:30:39;;;;;;;4.15;0.47;;;;;;;-1.74;47.73;100456.25;5016884;28;20037;-72
2023/03/11 03:33:05;;;;;;;3.13;0.13;;;;;;;-1.57;47.57;100453.78;5016766;28;20635;-73
2023/03/11 03:35:32;;;;;;;1.42;0.20;;;;;;;-1.63;47.82;100454.59;5023329;28;20102;-72
2023/03/11 03:38:12;;;;;;;9.05;0.20;;;;;;;-1.54;47.81;100464.03;5019586;28;20501;-73
2023/03/11 03:40:38;;;;;;;0.60;0.10;;;;;;;-1.56;48.24;100466.56;5014645;28;20037;-71
2023/03/11 03:43:05;;;;;;;1.98;0.30;;;;;;;-1.44;47.59;100465.75;5009073;28;20587;-71
2023/03/11 03:45:32;;;;;;;5.82;0.40;;;;;;;-1.41;47.73;100471.75;4995958;28;20509;-70
2023/03/11 03:47:58;;;;;;;1.70;0.10;;;;;;;-1.48;47.96;100472.59;4994264;28;20053;-70
2023/03/11 03:50:25;;;;;;;2.42;0.55;;;;;;;-1.33;47.00;100483.75;4999299;28;20718;-71
2023/03/11 03:52:52;;;;;;;1.60;0.15;;;;;;;-1.88;47.10;100476.72;4997529;28;21093;-71
2023/03/11 03:55:20;;;;;;;3.60;0.20;;;;;;;-1.57;47.33;100480.25;4983601;28;20673;-71
2023/03/11 03:57:46;;;;;;;0.73;0.10;;;;;;;-1.45;46.68;100484.56;5005353;28;20083;-70
2023/03/11 04:00:13;;;;;;;2.90;0.10;;;;;;;-1.18;46.85;100488.91;5031887;28;20037;-72
2023/03/11 04:02:43;;;;;;;2.28;1.17;;;;;;;-1.14;46.57;100488.06;4998214;28;20050;-70
2023/03/11 04:05:18;;;;;;;4.78;0.20;;;;;;;-1.32;46.66;100490.59;4991057;28;20406;-71
2023/03/11 04:07:45;;;;;;;0.32;0.10;;;;;;;-1.29;46.84;100494.00;4992283;28;20060;-69
2023/03/11 04:10:12;;;;;;;0.40;0.10;;;;;;;-1.36;46.85;100499.13;4992890;28;20025;-70
2023/03/11 04:12:39;;;;;;;5.53;0.35;;;;;;;-1.30;47.20;100501.72;4999411;28;20037;-70
2023/03/11 04:15:07;;;;;;;0.30;0.20;;;;;;;-1.24;46.88;100509.41;4998865;28;20033;-71
2023/03/11 04:17:33;;;;;;;0.22;0.10;;;;;;;-1.35;47.23;100505.94;5020445;28;20577;-69
2023/03/11 04:20:00;;;;;;;3.22;0.32;;;;;;;-1.45;47.36;100516.19;5031488;28;20682;-71
2023/03/11 04:22:26;;;;;;;4.40;0.10;;;;;;;-1.48;47.00;100517.88;5013985;28;20052;-69
2023/03/11 04:24:52;;;;;;;4.18;0.57;;;;;;;-1.36;46.81;100519.63;5015195;28;20506;-70
2023/03/11 04:27:17;;;;;;;2.45;0.20;;;;;;;-1.48;46.51;100526.44;5002807;28;20906;-70
2023/03/11 04:29:43;;;;;;;2.72;0.28;;;;;;;-1.36;46.29;100530.75;5000555;28;20037;-71
2023/03/11 04:32:09;;;;;;;0.93;0.10;;;;;;;-1.38;46.28;100533.28;5012685;28;20049;-69
2023/03/11 04:34:35;;;;;;;4.75;0.38;;;;;;;-1.59;46.39;100533.22;4998625;28;20030;-69
2023/03/11 04:37:01;;;;;;;3.78;0.20;;;;;;;-1.35;45.99;100536.72;4994937;28;20325;-69
2023/03/11 04:39:31;;;;;;;2.22;0.10;;;;;;;-1.48;45.92;100536.69;4983982;28;20094;-70
2023/03/11 04:41:57;;;;;;;0.10;0.00;;;;;;;-1.39;45.00;100536.72;4978181;28;20037;-70
2023/03/11 04:44:24;;;;;;;1.02;0.20;;;;;;;-1.42;44.89;100536.72;4995102;28;20025;-70
2023/03/11 04:46:50;;;;;;;4.38;0.20;;;;;;;-1.52;44.71;100537.50;4993651;28;20044;-69
2023/03/11 04:49:16;;;;;;;1.50;0.20;;;;;;;-1.58;44.50;100540.03;5029186;28;20871;-70
2023/03/11 04:51:42;;;;;;;2.58;0.52;;;;;;;-1.84;44.86;100545.91;5013258;28;20029;-69
2023/03/11 04:54:09;;;;;;;7.18;0.22;;;;;;;-1.89;45.16;100545.03;5015735;28;20732;-69
2023/03/11 04:56:34;;;;;;;2.55;0.00;;;;;;;-1.81;44.76;100545.91;5026204;28;20037;-70
2023/03/11 04:59:00;;;;;;;2.97;0.50;;;;;;;-2.03;45.09;100554.31;5015742;28;20404;-68
2023/03/11 05:01:28;;;;;;;3.22;0.20;;;;;;;-1.89;44.58;100552.72;5018402;28;21246;-71
2023/03/11 05:03:57;;;;;;;4.78;0.65;;;;;;;-2.01;45.25;100561.16;5021454;28;20056;-67
2023/03/11 05:06:22;;;;;;;3.00;0.22;;;;;;;-1.90;44.94;100561.22;4998224;28;20041;-68
2023/03/11 05:08:48;;;;;;;3.55;0.55;;;;;;;-1.99;45.20;100563.72;5000196;28;20138;-68
2023/03/11 05:11:13;;;;;;;1.38;0.38;;;;;;;-2.15;45.23;100567.88;4994936;28;20072;-70
2023/03/11 05:13:41;;;;;;;1.95;0.10;;;;;;;-2.18;45.49;100561.88;4977838;28;20048;-69
2023/03/11 05:16:06;;;;;;;4.63;0.40;;;;;;;-2.19;45.65;100571.25;4996487;28;20030;-69
2023/03/11 05:18:32;;;;;;;0.68;0.20;;;;;;;-2.17;45.53;100573.84;4997407;28;20038;-67
2023/03/11 05:20:59;;;;;;;4.53;0.20;;;;;;;-2.11;45.38;100582.44;4993857;28;20041;-67
2023/03/11 05:23:27;;;;;;;1.13;0.10;;;;;;;-2.13;46.13;100586.69;5010685;28;20073;-67
2023/03/11 05:25:52;;;;;;;4.10;0.20;;;;;;;-2.18;45.68;100582.34;5014382;28;20115;-68
2023/03/11 05:28:18;;;;;;;4.30;0.20;;;;;;;-2.23;45.51;100590.00;5015740;28;20053;-71
2023/03/11 05:30:49;;;;;;;0.63;0.10;;;;;;;-2.28;45.67;100587.41;5001698;28;20060;-73
2023/03/11 05:33:15;;;;;;;1.08;0.22;;;;;;;-2.37;45.98;100589.88;5011621;28;20067;-72
2023/03/11 05:35:42;;;;;;;2.38;0.10;;;;;;;-2.43;46.78;100593.25;5017918;28;20037;-71
2023/03/11 05:38:08;;;;;;;4.38;0.25;;;;;;;-2.44;46.84;100591.53;5020068;28;20079;-71
2023/03/11 05:40:33;;;;;;;2.85;0.22;;;;;;;-2.47;46.55;100590.63;5004000;28;20099;-69
2023/03/11 05:42:59;;;;;;;1.23;0.10;;;;;;;-2.49;46.86;100598.31;5006152;28;20714;-79
2023/03/11 05:45:27;;;;;;;3.45;0.35;;;;;;;-2.61;47.10;100602.47;5010486;28;20128;-78
2023/03/11 05:47:55;;;;;;;2.90;0.10;;;;;;;-2.47;46.98;100603.44;5004387;28;20106;-68
2023/03/11 05:50:20;;;;;;;0.40;0.08;;;;;;;-2.38;46.25;100600.97;5027836;28;20036;-71
2023/03/11 05:52:47;;;;;;;1.38;0.10;;;;;;;-2.43;46.63;100602.63;5013293;28;20506;-68
2023/03/11 05:55:13;;;;;;;3.08;0.17;;;;;;;-2.45;46.38;100612.00;5011726;28;20044;-71
2023/03/11 05:57:41;;;;;;;2.03;0.10;;;;;;;-2.49;46.42;100612.78;5010261;28;20045;-68
2023/03/11 06:00:10;;;;;;;0.20;0.00;;;;;;;-2.48;46.63;100620.50;4995772;28;20034;-69
2023/03/11 06:02:40;;;;;;;0.50;0.10;;;;;;;-2.48;47.01;100623.06;5008476;28;20636;-70
2023/03/11 06:05:08;;;;;;;1.65;0.15;;;;;;;-2.48;46.90;100624.78;5023380;28;20035;-66
2023/03/11 06:07:36;;;;;;;2.13;0.40;;;;;;;-2.50;47.53;100632.41;5029392;28;20462;-70
2023/03/11 06:10:03;;;;;;;3.50;0.40;;;;;;;-2.47;47.14;100632.47;5017547;28;20714;-68
2023/03/11 06:12:34;;;;;;;2.22;0.17;;;;;;;-2.44;46.96;100634.19;5014054;28;20040;-78
2023/03/11 06:15:15;;;;;;;1.23;0.32;;;;;;;-2.40;47.07;100642.75;5018477;28;20033;-78
2023/03/11 06:17:41;;;;;;;11.25;0.43;;;;;;;-2.36;47.28;100645.34;5015301;28;20196;-77
2023/03/11 06:20:08;;;;;;;0.95;0.15;;;;;;;-2.27;47.31;100648.03;5024238;28;20036;-75
2023/03/11 06:22:34;;;;;;;2.70;0.10;;;;;;;-2.08;46.82;100653.31;5008440;28;21054;-78
2023/03/11 06:25:00;;;;;;;0.47;0.10;;;;;;;-2.06;46.87;100654.16;5010727;28;20372;-77
2023/03/11 06:27:27;;;;;;;4.30;0.10;;;;;;;-2.02;46.97;100664.47;4993582;28;20446;-71
2023/03/11 06:29:53;;;;;;;4.75;0.10;;;;;;;-2.02;46.61;100661.03;4994431;28;20042;-71
2023/03/11 06:32:20;;;;;;;2.50;0.50;;;;;;;-2.05;47.06;100664.41;4992845;28;20061;-72
2023/03/11 06:34:49;;;;;;;1.27;0.35;;;;;;;-1.99;47.08;100665.31;4998449;28;20041;-70
2023/03/11 06:37:15;;;;;;;2.95;0.20;;;;;;;-1.82;47.03;100664.63;5013152;28;20545;-71
2023/03/11 06:39:41;;;;;;;2.47;0.17;;;;;;;-1.74;46.76;100659.53;5006928;28;20111;-72
2023/03/11 06:42:09;;;;;;;5.35;0.32;;;;;;;-1.67;46.92;100663.84;5004947;28;20063;-72
2023/03/11 06:44:35;;;;;;;2.30;0.10;;;;;;;-1.66;47.21;100672.44;5012990;28;20044;-72
2023/03/11 06:47:02;;;;;;;1.85;0.10;;;;;;;-1.16;46.83;100677.00;5021444;28;20502;-72
2023/03/11 06:49:28;;;;;;;3.47;0.13;;;;;;;-0.08;45.14;100673.09;5000888;28;20136;-72
2023/03/11 06:51:54;;;;;;;9.93;0.13;;;;;;;0.88;42.81;100673.84;4994198;28;20033;-69
2023/03/11 06:54:19;;;;;;;3.95;0.10;;;;;;;2.08;41.63;100678.38;4997297;28;20068;-69
2023/03/11 06:56:45;;;;;;;1.05;0.22;;;;;;;3.66;37.29;100679.25;4991599;28;20088;-70
2023/03/11 06:59:14;;;;;;;1.02;0.40;;;;;;;5.30;34.60;100685.91;4994418;28;20049;-69
2023/03/11 07:01:40;;;;;;;3.72;0.47;;;;;;;6.24;33.66;100679.41;4994214;28;20025;-68
2023/03/11 07:04:09;;;;;;;1.02;0.20;;;;;;;7.51;32.25;100688.06;5021674;28;20746;-66
2023/03/11 07:06:37;;;;;;;3.05;0.20;;;;;;;8.21;28.21;100689.38;5009682;28;20040;-71
2023/03/11 07:09:11;;;;;;;2.75;0.30;;;;;;;9.21;28.80;100688.53;5020458;28;20044;-70
2023/03/11 07:11:41;;;;;;;2.05;0.10;;;;;;;9.94;26.64;100695.28;5017944;28;20048;-70
2023/03/11 07:14:11;;;;;;;1.98;0.43;;;;;;;10.59;26.12;100693.47;5017053;28;20256;-67
2023/03/11 07:16:41;;;;;;;0.68;0.30;;;;;;;10.91;26.54;100693.84;5010889;28;20132;-69
2023/03/11 07:19:14;;;;;;;4.15;0.40;;;;;;;11.64;25.71;100694.00;5022418;28;20048;-68
2023/03/11 07:21:40;;;;;;;1.05;0.25;;;;;;;12.67;24.51;100702.09;5020078;28;20102;-68
2023/03/11 07:24:06;;;;;;;4.88;0.30;;;;;;;12.97;22.41;100715.38;5016465;28;20370;-70
2023/03/11 07:26:33;;;;;;;2.00;0.28;;;;;;;13.56;22.23;100707.84;5012558;28;20029;-70
2023/03/11 07:28:59;;;;;;;5.57;0.60;;;;;;;12.39;23.22;100718.34;5017348;28;20040;-71
2023/03/11 07:31:28;;;;;;;3.65;0.30;;;;;;;12.07;23.90;100726.03;5012029;28;20936;-69
2023/03/11 07:33:55;;;;;;;2.20;0.43;;;;;;;12.71;22.87;100729.84;4997913;28;20049;-70
2023/03/11 07:36:23;;;;;;;5.20;0.30;;;;;;;13.76;21.82;100724.31;4994447;28;20040;-73
2023/03/11 07:38:54;;;;;;;6.93;0.65;;;;;;;14.13;23.24;100729.16;5017704;28;20096;-70
2023/03/11 07:41:20;;;;;;;2.65;0.30;;;;;;;12.35;22.32;100733.38;5013881;28;20037;-71
2023/03/11 07:43:45;;;;;;;1.45;0.10;;;;;;;10.68;24.71;100738.41;5021140;28;20275;-70
2023/03/11 07:46:17;;;;;;;2.75;0.32;;;;;;;11.90;24.64;100737.31;5015324;28;20789;-70
2023/03/11 07:48:43;;;;;;;;;;;;;;;12.87;23.27;100745.63;5001788;28;20049;-72
2023/03/11 07:51:12;;;;;;;1.73;0.45;;;;;;;13.70;21.64;100747.38;4997901;28;19917;-70
2023/03/11 07:53:39;;;;;;;1.95;0.30;;;;;;;14.41;21.19;100743.41;4991507;28;20045;-70
2023/03/11 07:56:06;;;;;;;1.80;0.30;;;;;;;13.74;21.71;100758.53;4994572;28;20084;-71
2023/03/11 07:58:32;;;;;;;4.22;0.20;;;;;;;14.81;21.51;100758.59;5005379;28;20072;-72
2023/03/11 08:01:05;;;;;;;2.40;0.40;;;;;;;16.23;20.22;100761.19;5015460;28;20657;-71
2023/03/11 08:03:32;;;;;;;2.15;0.50;;;;;;;16.71;19.00;100759.72;4998490;28;20049;-72
2023/03/11 08:05:57;;;;;;;1.48;0.20;;;;;;;15.94;20.13;100758.63;4996627;28;20526;-72
2023/03/11 08:08:23;;;;;;;3.35;0.63;;;;;;;13.73;20.48;100775.22;4990928;28;20034;-68
2023/03/11 08:10:48;;;;;;;3.88;0.40;;;;;;;14.73;21.68;100782.75;4994111;28;20501;-67
2023/03/11 08:13:14;;;;;;;1.40;0.50;;;;;;;15.06;21.41;100776.38;5005484;28;20051;-68
2023/03/11 08:15:40;;;;;;;3.45;0.10;;;;;;;16.67;19.63;100778.50;5014330;28;20116;-68
2023/03/11 08:18:05;;;;;;;1.02;0.20;;;;;;;16.50;18.83;100784.91;5013485;28;20069;-67
2023/03/11 08:20:31;;;;;;;6.65;0.40;;;;;;;16.83;18.03;100781.81;5015166;28;20032;-67
2023/03/11 08:22:56;;;;;;;6.32;0.30;;;;;;;15.37;19.34;100781.53;5017023;28;20037;-68
2023/03/11 08:25:21;;;;;;;4.78;0.30;;;;;;;14.75;19.69;100786.97;5014756;28;20136;-68
2023/03/11 08:27:47;;;;;;;1.92;0.20;;;;;;;15.10;21.96;100793.69;5013932;28;20079;-65
2023/03/11 08:30:13;;;;;;;3.33;0.20;;;;;;;15.75;20.39;100791.44;5015105;28;20123;-67
2023/03/11 08:32:38;;;;;;;1.25;0.20;;;;;;;15.97;19.53;100785.66;5004158;28;20848;-67
2023/03/11 08:35:04;;;;;;;3.22;0.50;;;;;;;14.24;20.47;100790.81;4994489;28;20033;-67
2023/03/11 08:37:30;;;;;;;4.45;0.30;;;;;;;15.28;20.88;100791.75;4996423;28;20047;-68
2023/03/11 08:39:56;;;;;;;1.25;0.40;;;;;;;14.53;21.15;100803.16;5015717;28;20116;-67
2023/03/11 08:42:21;;;;;;;3.53;0.20;;;;;;;14.65;21.67;100804.22;5014831;28;20052;-66
2023/03/11 08:44:47;;;;;;;9.32;0.47;;;;;;;14.34;21.63;100799.84;5012233;28;20072;-69
2023/03/11 08:47:12;;;;;;;4.03;0.38;;;;;;;14.71;21.27;100809.13;5016212;28;20045;-66
2023/03/11 08:49:38;;;;;;;4.00;0.40;;;;;;;14.33;21.52;100804.25;5012012;28;20041;-66
2023/03/11 08:52:04;;;;;;;8.27;0.40;;;;;;;13.49;23.15;100811.50;5009511;28;20805;-66
2023/03/11 08:54:30;;;;;;;1.75;0.30;;;;;;;13.65;21.90;100811.56;4993367;28;20112;-68
2023/03/11 08:56:56;;;;;;;2.03;0.40;;;;;;;13.51;23.80;100818.38;4994913;28;20033;-68
2023/03/11 08:59:21;;;;;;;3.88;0.40;;;;;;;13.16;22.81;100816.75;5015761;28;20112;-66
2023/03/11 09:01:47;;;;;;;2.35;0.20;;;;;;;12.35;24.27;100817.25;5011814;28;20039;-67
2023/03/11 09:04:12;;;;;;;0.98;0.30;;;;;;;12.19;24.51;100816.28;5014174;28;20052;-67
2023/03/11 09:06:43;;;;;;;4.85;1.45;;;;;;;11.64;24.94;100817.03;5009609;28;20337;-66
2023/03/11 09:09:11;;;;;;;13.25;4.68;;;;;;;10.63;26.54;100830.94;4995770;28;20033;-66
2023/03/11 09:11:37;;;;;;;4.22;0.65;;;;;;;9.13;27.17;100826.16;4989250;28;20059;-67
2023/03/11 09:14:03;;;;;;;9.02;2.05;;;;;;;9.15;28.68;100829.56;4990727;28;20495;-67
2023/03/11 09:16:29;;;;;;;5.10;1.30;;;;;;;8.97;28.11;100831.88;4992433;28;20586;-66
2023/03/11 09:18:54;;;;;;;5.07;0.82;;;;;;;9.87;27.55;100829.56;4991844;28;20045;-68
2023/03/11 09:21:20;;;;;;;5.70;0.57;;;;;;;8.46;28.75;100830.06;4991411;28;20136;-69
2023/03/11 09:23:46;;;;;;;5.50;0.20;;;;;;;8.06;29.78;100835.66;4988491;28;20045;-66
2023/03/11 09:26:12;;;;;;;1.30;0.15;;;;;;;8.35;29.85;100832.16;4991316;28;21857;-66
2023/03/11 09:28:39;;;;;;;5.72;0.20;;;;;;;7.98;29.59;100833.28;4985711;28;20550;-68
2023/03/11 09:31:04;;;;;;;0.50;0.10;;;;;;;8.81;29.04;100830.69;4992911;28;20044;-68
2023/03/11 09:33:30;;;;;;;4.97;0.30;;;;;;;8.57;28.23;100834.91;4988615;28;20050;-68
2023/03/11 09:35:57;;;;;;;0.63;0.10;;;;;;;8.76;29.63;100837.78;4990738;28;20045;-66
2023/03/11 09:38:23;;;;;;;2.83;0.20;;;;;;;9.70;28.36;100838.03;4995323;28;20052;-69
2023/03/11 09:41:05;;;;;;;2.30;0.20;;;;;;;9.16;28.44;100839.94;4999877;28;20060;-69
2023/03/11 09:44:04;;;;;;;5.20;1.27;;;;;;;9.65;27.93;100839.06;4992083;28;20049;-68
2023/03/11 09:46:49;;;;;;;3.50;1.45;;;;;;;9.11;28.10;100835.78;5008169;28;20367;-69
2023/03/11 09:49:32;;;;;;;3.40;0.30;;;;;;;9.26;28.48;100839.63;5015195;28;20057;-65
2023/03/11 09:52:07;;;;;;;2.72;0.20;;;;;;;8.64;28.44;100846.84;5015602;28;20068;-66
2023/03/11 09:54:38;;;;;;;6.63;0.30;;;;;;;9.54;29.12;100844.69;4993396;28;20025;-68
2023/03/11 09:57:07;;;;;;;3.08;0.25;;;;;;;9.64;28.64;100838.22;4996207;28;20489;-67
2023/03/11 09:59:35;;;;;;;2.83;0.32;;;;;;;10.24;28.42;100833.41;4993686;28;20025;-66
2023/03/11 10:02:02;;;;;;;5.35;0.20;;;;;;;9.08;28.28;100834.13;4993786;28;20033;-69
2023/03/11 10:04:41;;;;;;;1.75;0.20;;;;;;;9.52;28.54;100838.66;4995609;28;20060;-65
2023/03/11 10:07:20;;;;;;;3.70;0.52;;;;;;;8.62;28.69;100837.38;4997729;28;20053;-67
2023/03/11 10:09:46;;;;;;;2.80;0.35;;;;;;;7.36;31.04;100836.75;5013245;28;20112;-66
2023/03/11 10:12:21;;;;;;;4.10;0.70;;;;;;;7.05;30.22;100839.28;5015177;28;20049;-68
2023/03/11 10:14:49;;;;;;;2.47;0.52;;;;;;;7.87;31.13;100840.53;5015122;28;20044;-67
2023/03/11 10:17:35;;;;;;;4.47;0.52;;;;;;;8.47;29.78;100836.97;5015788;28;20051;-67
2023/03/11 10:20:25;;;;;;;4.85;0.25;;;;;;;9.83;28.13;100834.97;5014666;28;20037;-68
2023/03/11 10:23:21;;;;;;;5.57;0.30;;;;;;;8.15;31.17;100836.22;5018118;28;20045;-66
2023/03/11 10:25:59;;;;;;;4.45;0.82;;;;;;;8.70;30.45;100843.19;5013848;28;20143;-69
2023/03/11 10:28:36;;;;;;;2.95;0.20;;;;;;;8.93;28.71;100839.84;5012328;28;20045;-67
2023/03/11 10:31:29;;;;;;;3.65;0.30;;;;;;;9.13;29.01;100841.78;5016127;28;20035;-68
2023/03/11 10:34:03;;;;;;;2.45;0.38;;;;;;;8.15;28.69;100843.16;4997061;28;21237;-67
2023/03/11 10:36:38;;;;;;;2.15;0.38;;;;;;;8.92;27.06;100848.59;4993792;28;20063;-67
2023/03/11 10:39:05;;;;;;;1.23;0.17;;;;;;;8.94;28.04;100845.03;4997131;28;20122;-69
2023/03/11 10:42:01;;;;;;;1.35;0.10;;;;;;;8.22;28.44;100851.66;4994791;28;20041;-66
2023/03/11 10:44:32;;;;;;;1.48;0.05;;;;;;;9.04;26.71;100842.94;4994067;28;20269;-68
2023/03/11 10:46:58;;;;;;;3.60;0.10;;;;;;;8.67;26.36;100838.94;4993913;28;20033;-66
2023/03/11 10:49:24;;;;;;;2.65;0.10;;;;;;;8.94;26.64;100839.81;5016083;28;20032;-67
2023/03/11 10:51:52;;;;;;;1.13;0.03;;;;;;;8.17;27.70;100843.13;5011486;28;20319;-65
2023/03/11 10:54:30;;;;;;;0.40;0.13;;;;;;;8.09;27.25;100839.03;5015637;28;20099;-67
2023/03/11 10:57:04;;;;;;;1.27;0.10;;;;;;;9.07;26.56;100842.84;5010108;28;20030;-67
2023/03/11 10:59:44;;;;;;;2.47;0.05;;;;;;;9.65;25.83;100834.69;4994278;28;20033;-66
2023/03/11 11:02:28;;;;;;;0.20;0.10;;;;;;;8.96;26.91;100840.63;4995991;28;20042;-68
2023/03/11 11:05:15;;;;;;;1.02;0.08;;;;;;;8.87;27.98;100840.06;4993017;28;20033;-66
2023/03/11 11:07:41;;;;;;;2.25;0.10;;;;;;;9.09;27.54;100845.41;5001097;28;20049;-67
2023/03/11 11:10:22;;;;;;;3.13;0.20;;;;;;;8.98;27.17;100840.53;5019497;28;20729;-67
2023/03/11 11:12:59;;;;;;;1.03;0.30;;;;;;;8.49;27.85;100845.56;5017236;28;20037;-67
2023/03/11 11:15:29;;;;;;;1.17;0.10;;;;;;;8.11;27.63;100845.03;5019744;28;20039;-67
2023/03/11 11:17:58;;;;;;;1.58;0.00;;;;;;;9.00;27.60;100840.50;5013153;28;20041;-67
2023/03/11 11:20:26;;;;;;;0.50;0.00;;;;;;;8.79;27.29;100831.66;5013227;28;20290;-67
2023/03/11 11:22:56;;;;;;;1.38;0.20;;;;;;;8.56;27.36;100836.69;5004608;28;20046;-66
2023/03/11 11:25:26;;;;;;;1.02;0.10;;;;;;;8.74;27.30;100839.63;4994779;28;20487;-67
2023/03/11 11:27:58;;;;;;;0.60;0.10;;;;;;;9.04;26.83;100836.91;4992879;28;20049;-67
2023/03/11 11:30:25;;;;;;;0.45;0.10;;;;;;;8.71;27.05;100839.72;4994846;28;20026;-66
2023/03/11 11:32:52;;;;;;;1.10;0.08;;;;;;;8.53;26.97;100836.75;4991146;28;20378;-67